createdAt,value
2018-03-26T00:00:01.548Z,25.58
2018-03-26T00:02:29.361Z,24.90
2018-03-26T00:04:56.977Z,24.58
2018-03-26T00:07:24.543Z,27.67
2018-03-26T00:09:52.977Z,29.80
2018-03-26T00:12:21.648Z,33.07
2018-03-26T00:14:50.119Z,39.72
2018-03-26T00:17:18.412Z,44.43
2018-03-26T00:19:46.925Z,47.17
2018-03-26T00:22:15.839Z,38.23
2018-03-26T00:24:44.968Z,42.23
2018-03-26T00:27:13.137Z,47.63
2018-03-26T00:29:42.699Z,47.03
2018-03-26T00:32:10.372Z,38.23
2018-03-26T00:34:37.895Z,44.45
2018-03-26T00:37:06.373Z,38.17
2018-03-26T00:39:34.815Z,34.83
2018-03-26T00:42:03.076Z,30.37
2018-03-26T00:44:31.135Z,29.00
2018-03-26T00:46:59.819Z,24.37
2018-03-26T00:49:27.378Z,29.33
2018-03-26T00:51:55.799Z,26.25
2018-03-26T00:54:24.772Z,24.40
2018-03-26T00:56:52.325Z,31.07
2018-03-26T00:59:20.145Z,29.97
2018-03-26T01:01:47.856Z,32.33
2018-03-26T01:04:15.699Z,31.67
2018-03-26T01:06:43.264Z,30.27
2018-03-26T01:09:11.439Z,32.07
2018-03-26T01:11:39.186Z,30.43
2018-03-26T01:14:06.969Z,30.03
2018-03-26T01:16:35.096Z,32.75
2018-03-26T01:19:03.004Z,26.27
2018-03-26T01:21:30.741Z,30.58
2018-03-26T01:23:58.356Z,30.83
2018-03-26T01:26:25.939Z,30.60
2018-03-26T01:28:53.496Z,33.00
2018-03-26T01:31:21.059Z,29.63
2018-03-26T01:33:48.611Z,30.57
2018-03-26T01:36:16.126Z,30.10
2018-03-26T01:38:43.689Z,29.53
2018-03-26T01:41:11.240Z,29.07
2018-03-26T01:43:38.789Z,29.23
2018-03-26T01:46:06.317Z,27.97
2018-03-26T01:48:33.877Z,31.97
2018-03-26T01:51:01.412Z,28.23
2018-03-26T01:53:28.988Z,31.33
2018-03-26T01:55:56.528Z,30.03
2018-03-26T01:58:24.158Z,28.93
2018-03-26T02:00:54.107Z,31.93
2018-03-26T02:03:21.838Z,29.10
2018-03-26T02:05:49.361Z,29.43
2018-03-26T02:08:16.937Z,30.77
2018-03-26T02:10:44.451Z,31.50
2018-03-26T02:13:12.084Z,28.80
2018-03-26T02:15:39.626Z,32.50
2018-03-26T02:18:07.186Z,31.77
2018-03-26T02:20:34.712Z,31.70
2018-03-26T02:23:02.270Z,27.53
2018-03-26T02:25:29.865Z,26.03
2018-03-26T02:27:57.415Z,30.23
2018-03-26T02:30:24.936Z,27.80
2018-03-26T02:32:52.498Z,29.40
2018-03-26T02:35:20.031Z,29.27
2018-03-26T02:37:47.615Z,27.47
2018-03-26T02:40:15.140Z,31.90
2018-03-26T02:42:42.791Z,26.97
2018-03-26T02:45:10.323Z,29.27
2018-03-26T02:47:37.851Z,27.87
2018-03-26T02:50:05.398Z,32.13
2018-03-26T02:52:32.921Z,31.00
2018-03-26T02:55:00.495Z,29.90
2018-03-26T02:57:28.032Z,29.70
2018-03-26T02:59:55.716Z,28.30
2018-03-26T03:02:23.250Z,27.53
2018-03-26T03:04:51.359Z,31.10
2018-03-26T03:07:18.955Z,27.93
2018-03-26T03:09:46.541Z,31.13
2018-03-26T03:12:14.060Z,29.07
2018-03-26T03:14:41.623Z,27.97
2018-03-26T03:17:09.154Z,31.53
2018-03-26T03:19:36.725Z,30.58
2018-03-26T03:22:04.256Z,28.48
2018-03-26T03:24:31.843Z,27.87
2018-03-26T03:26:59.384Z,29.37
2018-03-26T03:29:26.941Z,29.67
2018-03-26T03:31:54.470Z,32.97
2018-03-26T03:34:22.087Z,35.70
2018-03-26T03:36:49.695Z,33.07
2018-03-26T03:39:17.263Z,33.47
2018-03-26T03:41:44.829Z,31.30
2018-03-26T03:44:12.414Z,32.53
2018-03-26T03:46:39.941Z,30.67
2018-03-26T03:49:07.493Z,34.10
2018-03-26T03:51:35.041Z,30.80
2018-03-26T03:54:02.608Z,33.57
2018-03-26T03:56:30.125Z,33.67
2018-03-26T03:58:57.679Z,36.70
2018-03-26T04:01:25.288Z,32.83
2018-03-26T04:03:52.876Z,29.60
2018-03-26T04:06:20.403Z,36.53
2018-03-26T04:08:47.975Z,30.50
2018-03-26T04:11:15.815Z,35.40
2018-03-26T04:13:43.376Z,36.53
2018-03-26T04:16:10.895Z,35.20
2018-03-26T04:18:38.468Z,34.45
2018-03-26T04:21:06.003Z,39.73
2018-03-26T04:23:33.529Z,37.20
2018-03-26T04:26:01.188Z,36.50
2018-03-26T04:28:28.708Z,32.63
2018-03-26T04:30:56.315Z,36.08
2018-03-26T04:33:23.844Z,34.17
2018-03-26T04:35:51.715Z,37.40
2018-03-26T04:38:19.256Z,34.40
2018-03-26T04:40:46.816Z,36.83
2018-03-26T04:43:14.381Z,35.60
2018-03-26T04:45:41.936Z,40.17
2018-03-26T04:48:09.463Z,39.80
2018-03-26T04:50:37.036Z,34.60
2018-03-26T04:53:04.572Z,36.67
2018-03-26T04:55:32.165Z,39.63
2018-03-26T04:57:59.692Z,37.07
2018-03-26T05:00:27.268Z,39.23
2018-03-26T05:02:54.802Z,36.43
2018-03-26T05:05:22.375Z,39.30
2018-03-26T05:07:49.936Z,39.03
2018-03-26T05:10:17.533Z,38.73
2018-03-26T05:12:45.055Z,42.80
2018-03-26T05:15:12.612Z,35.80
2018-03-26T05:17:40.136Z,36.50
2018-03-26T05:20:07.704Z,36.92
2018-03-26T05:22:35.229Z,39.53
2018-03-26T05:25:02.814Z,35.50
2018-03-26T05:27:30.348Z,38.00
2018-03-26T05:29:57.899Z,35.80
2018-03-26T05:32:25.429Z,38.13
2018-03-26T05:34:52.982Z,39.63
2018-03-26T05:37:20.496Z,39.57
2018-03-26T05:39:48.059Z,39.57
2018-03-26T05:42:15.751Z,36.57
2018-03-26T05:44:43.504Z,44.13
2018-03-26T05:47:11.085Z,38.23
2018-03-26T05:49:40.871Z,42.77
2018-03-26T05:52:08.394Z,39.45
2018-03-26T05:54:35.953Z,36.17
2018-03-26T05:57:03.493Z,37.20
2018-03-26T05:59:31.046Z,48.13
2018-03-26T06:01:58.597Z,45.80
2018-03-26T06:04:26.115Z,38.33
2018-03-26T06:06:53.775Z,43.00
2018-03-26T06:09:21.297Z,42.62
2018-03-26T06:11:48.858Z,40.03
2018-03-26T06:14:16.453Z,36.92
2018-03-26T06:16:55.791Z,43.03
2018-03-26T06:19:23.308Z,43.03
2018-03-26T06:21:50.876Z,43.40
2018-03-26T06:24:18.423Z,35.47
2018-03-26T06:26:45.979Z,40.37
2018-03-26T06:29:13.500Z,46.90
2018-03-26T06:31:41.052Z,74.63
2018-03-26T06:34:08.579Z,82.67
2018-03-26T06:39:35.941Z,72.73
2018-03-26T06:42:03.520Z,67.73
2018-03-26T06:44:31.047Z,82.50
2018-03-26T06:46:58.601Z,79.63
2018-03-26T06:49:26.217Z,79.60
2018-03-26T06:51:53.775Z,68.87
2018-03-26T06:54:21.343Z,62.83
2018-03-26T06:56:48.914Z,70.30
2018-03-26T06:59:16.457Z,62.40
2018-03-26T07:01:46.256Z,62.97
2018-03-26T07:04:14.812Z,59.50
2018-03-26T07:06:42.686Z,55.40
2018-03-26T07:09:10.204Z,55.37
2018-03-26T07:11:37.935Z,52.87
2018-03-26T07:14:06.300Z,47.53
2018-03-26T07:16:33.873Z,45.57
2018-03-26T07:19:01.431Z,44.90
2018-03-26T07:21:33.249Z,53.63
2018-03-26T07:24:00.770Z,62.73
2018-03-26T07:26:28.347Z,53.05
2018-03-26T07:28:55.914Z,56.67
2018-03-26T07:31:23.486Z,49.13
2018-03-26T07:33:51.211Z,47.50
2018-03-26T07:36:18.775Z,47.40
2018-03-26T07:38:46.667Z,45.12
2018-03-26T07:41:14.288Z,51.33
2018-03-26T07:43:42.855Z,54.13
2018-03-26T07:46:10.514Z,54.22
2018-03-26T07:48:38.099Z,48.07
2018-03-26T07:51:05.659Z,48.73
2018-03-26T07:53:33.199Z,47.57
2018-03-26T07:56:00.766Z,47.77
2018-03-26T07:58:28.304Z,45.63
2018-03-26T08:00:55.959Z,53.07
2018-03-26T08:03:23.492Z,51.17
2018-03-26T08:05:51.044Z,48.70
2018-03-26T08:08:18.574Z,53.00
2018-03-26T08:10:46.276Z,48.90
2018-03-26T08:13:13.871Z,55.60
2018-03-26T08:15:41.437Z,53.72
2018-03-26T08:18:09.032Z,55.42
2018-03-26T08:20:36.600Z,53.93
2018-03-26T08:23:04.271Z,51.97
2018-03-26T08:25:33.655Z,60.37
2018-03-26T08:28:01.221Z,57.57
2018-03-26T08:30:28.754Z,54.63
2018-03-26T08:32:56.299Z,58.13
2018-03-26T08:35:23.836Z,54.33
2018-03-26T08:37:51.401Z,61.37
2018-03-26T08:40:18.959Z,57.10
2018-03-26T08:42:46.529Z,59.47
2018-03-26T08:45:14.048Z,61.80
2018-03-26T08:47:41.605Z,56.73
2018-03-26T08:50:09.247Z,61.03
2018-03-26T08:52:36.700Z,62.23
2018-03-26T08:55:04.223Z,61.40
2018-03-26T08:57:31.776Z,62.80
2018-03-26T08:59:59.335Z,58.47
2018-03-26T09:02:26.940Z,63.03
2018-03-26T09:04:54.477Z,61.20
2018-03-26T09:07:22.045Z,61.00
2018-03-26T09:09:49.580Z,61.85
2018-03-26T09:12:17.479Z,60.87
2018-03-26T09:14:45.026Z,61.50
2018-03-26T09:17:12.605Z,64.03
2018-03-26T09:19:40.157Z,64.50
2018-03-26T09:22:08.197Z,63.97
2018-03-26T09:24:36.066Z,64.20
2018-03-26T09:27:03.659Z,64.67
2018-03-26T09:29:32.501Z,58.15
2018-03-26T09:32:00.332Z,60.83
2018-03-26T09:34:27.858Z,63.13
2018-03-26T09:36:57.427Z,58.53
2018-03-26T09:39:25.256Z,58.07
2018-03-26T09:41:54.024Z,59.63
2018-03-26T09:44:21.573Z,59.03
2018-03-26T09:46:49.128Z,56.43
2018-03-26T09:49:16.659Z,58.60
2018-03-26T09:51:44.226Z,58.60
2018-03-26T09:54:11.768Z,57.97
2018-03-26T09:56:40.235Z,62.43
2018-03-26T09:59:07.844Z,60.72
2018-03-26T10:04:32.404Z,59.10
2018-03-26T10:07:00.003Z,60.30
2018-03-26T10:09:28.076Z,56.20
2018-03-26T10:11:55.845Z,57.13
2018-03-26T10:14:24.687Z,61.97
2018-03-26T10:16:52.485Z,55.63
2018-03-26T10:19:20.341Z,59.40
2018-03-26T10:21:47.934Z,54.77
2018-03-26T10:24:15.846Z,60.50
2018-03-26T10:26:43.529Z,59.53
2018-03-26T10:29:11.092Z,58.60
2018-03-26T10:31:38.648Z,61.60
2018-03-26T10:34:06.932Z,59.33
2018-03-26T10:36:34.505Z,54.97
2018-03-26T10:39:02.227Z,56.97
2018-03-26T10:41:29.762Z,58.03
2018-03-26T10:43:57.370Z,59.03
2018-03-26T10:46:24.912Z,61.33
2018-03-26T10:48:52.856Z,59.87
2018-03-26T10:51:20.380Z,59.33
2018-03-26T10:53:47.981Z,63.15
2018-03-26T10:56:15.695Z,61.37
2018-03-26T10:58:43.330Z,63.80
2018-03-26T11:01:11.329Z,59.70
2018-03-26T11:03:40.309Z,58.87
2018-03-26T11:06:07.840Z,57.83
2018-03-26T11:08:37.662Z,56.33
2018-03-26T11:11:07.369Z,59.73
2018-03-26T11:13:38.308Z,55.47
2018-03-26T11:16:07.909Z,56.28
2018-03-26T11:18:37.752Z,53.40
2018-03-26T11:21:07.431Z,58.73
2018-03-26T11:23:38.255Z,54.17
2018-03-26T11:26:08.502Z,56.30
2018-03-26T11:28:38.879Z,59.58
2018-03-26T11:31:09.738Z,59.90
2018-03-26T11:33:47.258Z,61.30
2018-03-26T11:36:21.526Z,57.27
2018-03-26T11:38:55.394Z,60.53
2018-03-26T11:41:30.611Z,61.95
2018-03-26T11:44:01.055Z,52.20
2018-03-26T11:46:31.070Z,49.70
2018-03-26T11:49:04.366Z,55.17
2018-03-26T11:51:37.726Z,54.50
2018-03-26T11:54:08.783Z,55.53
2018-03-26T11:56:36.998Z,47.67
2018-03-26T11:59:05.110Z,56.47
2018-03-26T12:01:32.715Z,53.70
2018-03-26T12:04:00.287Z,55.33
2018-03-26T12:06:27.816Z,49.57
2018-03-26T12:08:55.432Z,52.57
2018-03-26T12:11:22.943Z,54.93
2018-03-26T12:13:50.500Z,56.63
2018-03-26T12:16:18.023Z,52.90
2018-03-26T12:18:45.602Z,51.60
2018-03-26T12:21:13.159Z,47.63
2018-03-26T12:23:52.654Z,55.92
2018-03-26T12:26:20.595Z,52.23
2018-03-26T12:28:59.885Z,49.10
2018-03-26T12:31:27.442Z,47.67
2018-03-26T12:34:06.744Z,48.20
2018-03-26T12:36:34.271Z,43.87
2018-03-26T12:39:01.836Z,41.85
2018-03-26T12:41:30.101Z,44.47
2018-03-26T12:43:57.850Z,34.67
2018-03-26T12:46:37.247Z,38.80
2018-03-26T12:49:04.848Z,37.28
2018-03-26T12:51:44.202Z,33.25
2018-03-26T12:54:11.782Z,31.50
2018-03-26T12:56:39.347Z,32.77
2018-03-26T12:59:06.860Z,36.00
2018-03-26T13:01:46.144Z,38.10
2018-03-26T13:04:13.740Z,36.17
2018-03-26T13:06:41.276Z,37.08
2018-03-26T13:09:08.856Z,39.47
2018-03-26T13:11:36.419Z,36.40
2018-03-26T13:14:04.001Z,41.33
2018-03-26T13:16:31.551Z,39.40
2018-03-26T13:18:59.291Z,37.73
2018-03-26T13:21:27.428Z,37.28
2018-03-26T13:23:54.960Z,40.30
2018-03-26T13:26:22.964Z,38.33
2018-03-26T13:28:50.796Z,35.53
2018-03-26T13:31:18.437Z,39.13
2018-03-26T13:33:46.041Z,39.23
2018-03-26T13:36:13.780Z,38.60
2018-03-26T13:38:41.365Z,35.60
2018-03-26T13:41:08.903Z,40.07
2018-03-26T13:43:36.436Z,30.90
2018-03-26T13:46:05.024Z,30.60
2018-03-26T13:48:32.738Z,31.00
2018-03-26T13:51:00.362Z,31.10
2018-03-26T13:53:27.900Z,31.60
2018-03-26T13:55:55.467Z,30.08
2018-03-26T13:58:22.999Z,33.97
2018-03-26T14:00:50.584Z,32.17
2018-03-26T14:03:18.155Z,29.77
2018-03-26T14:05:45.710Z,30.30
2018-03-26T14:08:25.074Z,26.70
2018-03-26T14:11:04.497Z,24.77
2018-03-26T14:16:49.908Z,34.03
2018-03-26T14:19:20.735Z,28.73
2018-03-26T14:21:49.594Z,28.93
2018-03-26T14:24:18.859Z,25.07
2018-03-26T14:26:47.071Z,23.40
2018-03-26T14:29:14.671Z,25.37
2018-03-26T14:31:43.702Z,28.17
2018-03-26T14:34:13.982Z,28.57
2018-03-26T14:36:42.177Z,28.45
2018-03-26T14:39:12.487Z,22.20
2018-03-26T14:41:41.384Z,25.60
2018-03-26T14:44:10.215Z,19.67
2018-03-26T14:46:40.703Z,17.17
2018-03-26T14:49:11.430Z,15.50
2018-03-26T14:51:41.742Z,11.32
2018-03-26T14:54:13.451Z,15.13
2018-03-26T14:56:42.325Z,13.40
2018-03-26T14:59:11.382Z,14.40
2018-03-26T15:01:39.096Z,13.73
2018-03-26T15:04:06.976Z,13.07
2018-03-26T15:06:34.548Z,12.77
2018-03-26T15:09:02.072Z,16.40
2018-03-26T15:11:30.032Z,14.90
2018-03-26T15:13:57.889Z,12.63
2018-03-26T15:16:25.464Z,12.30
2018-03-26T15:18:53.002Z,13.20
2018-03-26T15:21:20.532Z,13.53
2018-03-26T15:23:48.116Z,13.80
2018-03-26T15:26:15.673Z,14.30
2018-03-26T15:28:43.229Z,13.23
2018-03-26T15:31:10.761Z,12.48
2018-03-26T15:33:38.332Z,13.65
2018-03-26T15:36:05.868Z,12.70
2018-03-26T15:38:33.428Z,9.33
2018-03-26T15:41:00.962Z,12.47
2018-03-26T15:43:28.506Z,9.43
2018-03-26T15:45:56.060Z,10.80
2018-03-26T15:48:23.627Z,12.93
2018-03-26T15:50:51.215Z,10.40
2018-03-26T15:53:18.757Z,10.60
2018-03-26T15:55:46.276Z,8.87
2018-03-26T15:58:13.830Z,11.10
2018-03-26T16:00:41.349Z,8.63
2018-03-26T16:06:05.684Z,10.23
2018-03-26T16:08:33.250Z,8.73
2018-03-26T16:11:00.802Z,9.77
2018-03-26T16:13:28.380Z,12.53
2018-03-26T16:15:55.929Z,7.62
2018-03-26T16:18:23.487Z,8.23
2018-03-26T16:20:51.044Z,9.07
2018-03-26T16:23:18.594Z,9.50
2018-03-26T16:25:46.120Z,13.67
2018-03-26T16:28:13.680Z,10.30
2018-03-26T16:30:41.248Z,13.47
2018-03-26T16:33:09.138Z,10.77
2018-03-26T16:35:39.706Z,10.80
2018-03-26T16:38:07.272Z,9.53
2018-03-26T16:40:34.811Z,11.47
2018-03-26T16:43:05.278Z,9.07
2018-03-26T16:45:32.824Z,11.00
2018-03-26T16:48:00.353Z,7.37
2018-03-26T16:50:28.975Z,9.05
2018-03-26T16:52:56.522Z,6.13
2018-03-26T16:55:24.103Z,7.30
2018-03-26T16:57:51.636Z,10.00
2018-03-26T17:00:20.387Z,7.67
2018-03-26T17:02:48.111Z,7.37
2018-03-26T17:05:16.166Z,6.37
2018-03-26T17:07:43.797Z,9.83
2018-03-26T17:10:11.320Z,10.90
2018-03-26T17:12:38.887Z,6.67
2018-03-26T17:15:06.848Z,7.90
2018-03-26T17:17:34.370Z,7.47
2018-03-26T17:20:06.472Z,7.00
2018-03-26T17:22:34.828Z,5.13
2018-03-26T17:25:03.415Z,5.27
2018-03-26T17:27:31.221Z,5.80
2018-03-26T17:29:59.722Z,5.00
2018-03-26T17:32:27.260Z,4.97
2018-03-26T17:34:54.996Z,5.97
2018-03-26T17:37:22.727Z,4.75
2018-03-26T17:39:50.413Z,6.30
2018-03-26T17:42:18.667Z,4.57
2018-03-26T17:44:46.516Z,4.70
2018-03-26T17:47:14.047Z,3.90
2018-03-26T17:49:42.102Z,4.40
2018-03-26T17:52:10.368Z,3.83
2018-03-26T17:54:41.978Z,5.93
2018-03-26T17:57:09.608Z,5.73
2018-03-26T17:59:37.223Z,7.93
2018-03-26T18:02:05.363Z,4.53
2018-03-26T18:04:33.070Z,4.80
2018-03-26T18:07:00.872Z,30.08
2018-03-26T18:09:28.416Z,9.50
2018-03-26T18:11:56.944Z,5.50
2018-03-26T18:14:26.622Z,7.00
2018-03-26T18:16:54.379Z,7.80
2018-03-26T18:19:22.832Z,6.07
2018-03-26T18:21:51.005Z,7.27
2018-03-26T18:24:19.234Z,8.90
2018-03-26T18:26:46.936Z,7.67
2018-03-26T18:29:15.317Z,6.37
2018-03-26T18:31:43.143Z,6.97
2018-03-26T18:34:11.228Z,7.83
2018-03-26T18:36:39.302Z,10.68
2018-03-26T18:39:06.880Z,7.78
2018-03-26T18:41:34.867Z,11.70
2018-03-26T18:44:02.699Z,6.80
2018-03-26T18:46:31.684Z,8.55
2018-03-26T18:48:59.277Z,6.43
2018-03-26T18:51:27.184Z,7.57
2018-03-26T18:53:55.897Z,6.33
2018-03-26T18:56:25.530Z,8.43
2018-03-26T18:58:53.720Z,5.53
2018-03-26T19:01:21.885Z,7.33
2018-03-26T19:03:52.869Z,6.03
2018-03-26T19:06:23.401Z,5.60
2018-03-26T19:08:54.277Z,5.07
2018-03-26T19:11:22.928Z,4.85
2018-03-26T19:13:53.682Z,5.20
2018-03-26T19:16:22.774Z,6.27
2018-03-26T19:18:50.326Z,5.57
2018-03-26T19:21:17.918Z,6.20
2018-03-26T19:23:45.438Z,5.03
2018-03-26T19:26:12.996Z,5.57
2018-03-26T19:28:40.982Z,4.47
2018-03-26T19:31:08.472Z,3.97
2018-03-26T19:33:36.049Z,5.15
2018-03-26T19:36:04.368Z,6.67
2018-03-26T19:38:32.328Z,5.37
2018-03-26T19:40:59.893Z,8.17
2018-03-26T19:43:27.917Z,6.23
2018-03-26T19:45:55.465Z,9.40
2018-03-26T19:48:23.313Z,5.90
2018-03-26T19:50:50.882Z,6.43
2018-03-26T19:53:18.428Z,5.60
2018-03-26T19:55:45.943Z,5.00
2018-03-26T19:58:13.515Z,5.60
2018-03-26T20:00:43.404Z,7.07
2018-03-26T20:03:11.429Z,6.90
2018-03-26T20:05:39.113Z,10.90
2018-03-26T20:08:06.651Z,7.30
2018-03-26T20:10:34.184Z,8.32
2018-03-26T20:13:01.756Z,8.13
2018-03-26T20:15:29.317Z,10.57
2018-03-26T20:17:56.832Z,9.90
2018-03-26T20:20:24.562Z,7.13
2018-03-26T20:22:52.490Z,9.77
2018-03-26T20:25:20.499Z,14.57
2018-03-26T20:27:48.599Z,15.77
2018-03-26T20:30:18.236Z,8.65
2018-03-26T20:32:46.134Z,8.13
2018-03-26T20:35:13.675Z,7.90
2018-03-26T20:37:41.276Z,7.93
2018-03-26T20:40:08.879Z,10.83
2018-03-26T20:42:36.430Z,11.67
2018-03-26T20:45:04.017Z,12.27
2018-03-26T20:47:32.715Z,19.53
2018-03-26T20:50:00.288Z,23.17
2018-03-26T20:52:29.426Z,16.27
2018-03-26T20:54:57.128Z,19.37
2018-03-26T20:57:25.243Z,13.10
2018-03-26T20:59:52.784Z,11.57
2018-03-26T21:02:20.335Z,7.63
2018-03-26T21:04:47.864Z,8.77
2018-03-26T21:07:15.405Z,6.97
2018-03-26T21:09:42.949Z,11.53
2018-03-26T21:12:10.503Z,11.20
2018-03-26T21:14:38.020Z,9.07
2018-03-26T21:17:05.581Z,8.40
2018-03-26T21:19:33.348Z,9.02
2018-03-26T21:22:00.901Z,10.10
2018-03-26T21:24:28.435Z,12.13
2018-03-26T21:26:56.003Z,36.23
2018-03-26T21:29:23.556Z,33.83
2018-03-26T21:31:51.118Z,20.00
2018-03-26T21:34:18.720Z,20.87
2018-03-26T21:36:46.916Z,25.07
2018-03-26T21:39:14.463Z,25.23
2018-03-26T21:41:42.017Z,26.53
2018-03-26T21:44:09.541Z,23.90
2018-03-26T21:46:37.116Z,18.57
2018-03-26T21:49:04.660Z,20.77
2018-03-26T21:51:32.231Z,15.17
2018-03-26T21:53:59.755Z,15.73
2018-03-26T21:56:27.311Z,18.13
2018-03-26T21:58:54.834Z,14.80
2018-03-26T22:01:22.402Z,17.05
2018-03-26T22:03:49.936Z,14.83
2018-03-26T22:06:17.540Z,14.95
2018-03-26T22:08:45.072Z,14.07
2018-03-26T22:11:18.242Z,15.07
2018-03-26T22:13:48.248Z,12.17
2018-03-26T22:16:16.386Z,13.30
2018-03-26T22:18:44.497Z,10.97
2018-03-26T22:21:13.112Z,13.90
2018-03-26T22:23:42.295Z,16.33
2018-03-26T22:26:10.811Z,11.00
2018-03-26T22:28:39.721Z,11.47
2018-03-26T22:31:09.313Z,13.10
2018-03-26T22:33:37.488Z,13.10
2018-03-26T22:36:06.535Z,11.30
2018-03-26T22:38:34.864Z,12.93
2018-03-26T22:41:04.400Z,13.63
2018-03-26T22:43:33.224Z,14.77
2018-03-26T22:46:00.847Z,15.17
2018-03-26T22:48:30.611Z,14.93
2018-03-26T22:51:00.377Z,20.33
2018-03-26T22:53:30.113Z,12.73
2018-03-26T22:55:57.765Z,14.87
2018-03-26T22:58:25.317Z,15.40
2018-03-26T23:00:52.841Z,12.33
2018-03-26T23:03:20.413Z,20.52
2018-03-26T23:05:47.931Z,19.00
2018-03-26T23:08:15.501Z,19.60
2018-03-26T23:10:43.044Z,14.87
2018-03-26T23:13:10.614Z,13.93
2018-03-26T23:15:38.154Z,13.13
2018-03-26T23:18:05.728Z,16.77
2018-03-26T23:20:34.376Z,16.77
2018-03-26T23:23:03.503Z,15.37
2018-03-26T23:25:31.132Z,21.80
2018-03-26T23:27:58.683Z,16.63
2018-03-26T23:30:26.210Z,18.50
2018-03-26T23:32:53.755Z,27.92
2018-03-26T23:35:21.274Z,19.23
2018-03-26T23:37:48.874Z,21.13
2018-03-26T23:40:18.918Z,20.00
2018-03-26T23:42:46.544Z,17.73
2018-03-26T23:45:14.060Z,18.83
2018-03-26T23:47:41.626Z,17.45
2018-03-26T23:50:09.155Z,16.80
2018-03-26T23:52:36.716Z,19.85
2018-03-26T23:55:04.250Z,17.73
2018-03-26T23:57:31.869Z,16.27
2018-03-26T23:59:59.426Z,18.97
